createdAt,value
2018-04-02T00:02:36.383Z,93.07
2018-04-02T00:06:38.994Z,78.47
2018-04-02T00:10:41.633Z,83.20
2018-04-02T00:14:44.273Z,82.90
2018-04-02T00:18:46.932Z,77.50
2018-04-02T00:22:49.571Z,80.73
2018-04-02T00:26:52.175Z,73.67
2018-04-02T00:30:54.806Z,74.13
2018-04-02T00:34:57.441Z,73.93
2018-04-02T00:39:00.846Z,73.97
2018-04-02T00:43:04.246Z,73.60
2018-04-02T00:47:07.618Z,85.13
2018-04-02T00:51:10.259Z,85.60
2018-04-02T00:55:12.910Z,68.60
2018-04-02T00:59:15.553Z,70.53
2018-04-02T01:03:18.197Z,71.17
2018-04-02T01:07:20.801Z,62.93
2018-04-02T01:11:24.206Z,61.73
2018-04-02T01:15:26.856Z,68.17
2018-04-02T01:19:29.514Z,67.63
2018-04-02T01:23:32.122Z,66.93
2018-04-02T01:27:34.778Z,62.07
2018-04-02T01:31:37.422Z,61.70
2018-04-02T01:35:40.057Z,60.53
2018-04-02T01:39:43.460Z,63.20
2018-04-02T01:43:46.070Z,63.33
2018-04-02T01:47:48.761Z,61.10
2018-04-02T01:51:51.415Z,66.23
2018-04-02T01:55:54.081Z,63.60
2018-04-02T01:59:57.492Z,65.17
2018-04-02T02:04:00.861Z,63.43
2018-04-02T02:08:03.503Z,73.17
2018-04-02T02:12:06.146Z,75.57
2018-04-02T02:16:08.794Z,86.13
2018-04-02T02:20:11.446Z,82.77
2018-04-02T02:24:14.818Z,90.50
2018-04-02T02:28:17.466Z,83.73
2018-04-02T02:32:20.112Z,78.63
2018-04-02T02:36:22.747Z,72.67
2018-04-02T02:40:25.386Z,71.17
2018-04-02T02:44:27.996Z,78.70
2018-04-02T02:48:31.408Z,81.37
2018-04-02T02:52:34.871Z,72.43
2018-04-02T02:56:37.515Z,71.57
2018-04-02T03:00:40.185Z,68.97
2018-04-02T03:04:43.605Z,78.50
2018-04-02T03:08:47.058Z,75.23
2018-04-02T03:12:49.716Z,78.17
2018-04-02T03:16:52.352Z,78.57
2018-04-02T03:20:54.957Z,70.23
2018-04-02T03:24:58.375Z,71.47
2018-04-02T03:29:01.832Z,74.23
2018-04-02T03:33:04.505Z,74.87
2018-04-02T03:37:07.971Z,77.70
2018-04-02T03:41:11.340Z,70.03
2018-04-02T03:45:13.990Z,68.47
2018-04-02T03:49:16.625Z,69.10
2018-04-02T03:53:19.266Z,75.07
2018-04-02T03:57:21.874Z,70.63
2018-04-02T04:01:24.505Z,73.37
2018-04-02T04:05:27.164Z,75.87
2018-04-02T04:09:29.809Z,74.27
2018-04-02T04:13:32.453Z,73.37
2018-04-02T04:17:35.120Z,78.97
2018-04-02T04:21:37.760Z,75.13
2018-04-02T04:25:41.166Z,72.17
2018-04-02T04:29:44.570Z,74.07
2018-04-02T04:33:47.982Z,73.20
2018-04-02T04:37:51.411Z,79.57
2018-04-02T04:41:54.046Z,78.23
2018-04-02T04:45:56.687Z,82.53
2018-04-02T04:49:59.406Z,85.03
2018-04-02T04:54:02.041Z,83.87
2018-04-02T04:58:05.410Z,74.30
2018-04-02T05:02:08.058Z,71.50
2018-04-02T05:06:10.773Z,72.90
2018-04-02T05:10:13.445Z,79.70
2018-04-02T05:14:16.154Z,67.03
2018-04-02T05:18:18.812Z,79.33
2018-04-02T05:22:21.449Z,76.50
2018-04-02T05:26:24.098Z,77.07
2018-04-02T05:30:27.502Z,79.00
2018-04-02T05:34:30.114Z,80.83
2018-04-02T05:38:32.810Z,72.63
2018-04-02T05:42:35.444Z,76.53
2018-04-02T05:46:38.124Z,70.73
2018-04-02T05:50:41.534Z,80.80
2018-04-02T05:54:44.906Z,86.33
2018-04-02T05:58:47.612Z,76.43
2018-04-02T06:02:50.250Z,80.87
2018-04-02T06:06:52.892Z,81.03
2018-04-02T06:10:55.542Z,78.87
2018-04-02T06:14:58.145Z,79.67
2018-04-02T06:19:00.786Z,82.20
2018-04-02T06:23:03.438Z,75.50
2018-04-02T06:27:06.151Z,77.23
2018-04-02T06:31:09.709Z,80.20
2018-04-02T06:35:12.348Z,72.37
2018-04-02T06:39:15.758Z,68.57
2018-04-02T06:43:19.160Z,75.47
2018-04-02T06:47:22.586Z,75.20
2018-04-02T06:51:25.234Z,71.27
2018-04-02T06:55:27.902Z,60.10
2018-04-02T06:59:30.547Z,65.63
2018-04-02T07:03:33.188Z,60.40
2018-04-02T07:07:35.837Z,63.87
2018-04-02T07:11:38.446Z,61.50
2018-04-02T07:15:41.086Z,66.10
2018-04-02T07:19:44.499Z,70.03
2018-04-02T07:23:47.910Z,63.93
2018-04-02T07:27:50.561Z,65.60
2018-04-02T07:31:53.204Z,72.00
2018-04-02T07:35:55.859Z,70.07
2018-04-02T07:39:59.270Z,64.53
2018-04-02T07:44:02.730Z,69.27
2018-04-02T07:48:05.341Z,74.70
2018-04-02T07:52:07.987Z,68.87
2018-04-02T07:56:10.625Z,66.60
2018-04-02T08:00:13.295Z,70.97
2018-04-02T08:04:16.024Z,64.03
2018-04-02T08:08:19.393Z,69.20
2018-04-02T08:12:22.050Z,61.70
2018-04-02T08:16:24.692Z,64.03
2018-04-02T08:20:28.091Z,65.47
2018-04-02T08:24:30.728Z,53.53
2018-04-02T08:28:33.441Z,62.10
2018-04-02T08:32:36.142Z,57.70
2018-04-02T08:36:39.523Z,57.27
2018-04-02T08:40:42.220Z,55.30
2018-04-02T08:44:45.013Z,56.40
2018-04-02T08:48:47.630Z,61.50
2018-04-02T08:52:50.264Z,63.20
2018-04-02T08:56:52.901Z,70.60
2018-04-02T09:00:55.608Z,84.33
2018-04-02T09:04:59.024Z,74.87
2018-04-02T09:09:02.394Z,80.27
2018-04-02T09:13:05.092Z,77.97
2018-04-02T09:17:07.729Z,80.93
2018-04-02T09:21:10.374Z,134.97
2018-04-02T09:25:12.973Z,112.80
2018-04-02T09:29:16.372Z,84.40
2018-04-02T09:33:19.017Z,86.60
2018-04-02T09:37:21.659Z,91.97
2018-04-02T09:41:25.066Z,94.03
2018-04-02T09:45:28.464Z,90.10
2018-04-02T09:49:31.877Z,101.57
2018-04-02T09:53:35.304Z,97.63
2018-04-02T09:57:38.446Z,89.10
2018-04-02T10:01:41.185Z,98.20
2018-04-02T10:05:43.802Z,92.13
2018-04-02T10:09:47.202Z,84.33
2018-04-02T10:13:49.843Z,95.87
2018-04-02T10:17:52.477Z,87.40
2018-04-02T10:21:55.139Z,89.67
2018-04-02T10:25:58.573Z,90.13
2018-04-02T10:30:01.293Z,80.87
2018-04-02T10:34:03.874Z,81.63
2018-04-02T10:38:06.518Z,76.70
2018-04-02T10:42:09.126Z,77.67
2018-04-02T10:46:11.780Z,69.80
2018-04-02T10:50:15.373Z,68.50
2018-04-02T10:54:18.057Z,69.63
2018-04-02T10:58:21.315Z,66.90
2018-04-02T11:02:23.346Z,79.13
2018-04-02T11:06:26.012Z,80.13
2018-04-02T11:10:28.683Z,81.77
2018-04-02T11:14:31.330Z,77.40
2018-04-02T11:18:33.977Z,71.27
2018-04-02T11:22:36.593Z,70.43
2018-04-02T11:26:40.019Z,70.87
2018-04-02T11:30:42.662Z,69.57
2018-04-02T11:34:45.307Z,59.47
2018-04-02T11:38:47.961Z,94.70
2018-04-02T11:42:51.344Z,74.80
2018-04-02T11:46:53.993Z,58.53
2018-04-02T11:50:56.634Z,59.47
2018-04-02T11:54:59.273Z,54.03
2018-04-02T11:59:01.882Z,52.97
2018-04-02T12:03:04.545Z,61.77
2018-04-02T12:07:07.186Z,53.50
2018-04-02T12:15:19.445Z,48.47
2018-04-02T12:19:22.817Z,46.80
2018-04-02T12:23:25.456Z,50.60
2018-04-02T12:27:28.107Z,49.17
2018-04-02T12:31:30.750Z,46.07
2018-04-02T12:35:33.394Z,43.90
2018-04-02T12:39:36.825Z,40.10
2018-04-02T12:43:39.465Z,37.37
2018-04-02T12:47:42.906Z,40.50
2018-04-02T12:51:45.581Z,41.50
2018-04-02T12:55:48.224Z,63.70
2018-04-02T12:59:50.838Z,33.40
2018-04-02T13:03:54.335Z,37.90
2018-04-02T13:07:56.974Z,44.60
2018-04-02T13:12:00.394Z,34.90
2018-04-02T13:16:03.072Z,42.07
2018-04-02T13:20:05.712Z,34.27
2018-04-02T13:24:08.359Z,32.10
2018-04-02T13:28:10.998Z,32.03
2018-04-02T13:32:13.643Z,29.47
2018-04-02T13:36:16.311Z,31.87
2018-04-02T13:40:19.071Z,28.53
2018-04-02T13:44:21.709Z,28.90
2018-04-02T13:48:24.353Z,32.40
2018-04-02T13:52:26.997Z,27.80
2018-04-02T13:56:29.602Z,29.83
2018-04-02T14:00:32.242Z,32.87
2018-04-02T14:04:35.660Z,28.97
2018-04-02T14:08:38.311Z,30.07
2018-04-02T14:12:40.961Z,28.83
2018-04-02T14:16:43.571Z,26.17
2018-04-02T14:20:46.213Z,29.77
2018-04-02T14:24:48.853Z,28.67
2018-04-02T14:28:51.504Z,26.07
2018-04-02T14:32:54.171Z,25.90
2018-04-02T14:36:56.867Z,28.17
2018-04-02T14:40:59.526Z,24.33
2018-04-02T14:45:02.942Z,25.67
2018-04-02T14:49:06.357Z,25.93
2018-04-02T14:53:08.967Z,24.87
2018-04-02T14:57:11.606Z,27.00
2018-04-02T15:01:14.413Z,24.23
2018-04-02T15:05:17.113Z,26.50
2018-04-02T15:09:19.754Z,24.10
2018-04-02T15:13:22.369Z,24.13
2018-04-02T15:17:25.791Z,25.47
2018-04-02T15:21:29.250Z,27.93
2018-04-02T15:25:31.899Z,24.93
2018-04-02T15:29:34.540Z,22.13
2018-04-02T15:33:37.149Z,27.63
2018-04-02T15:37:40.554Z,25.07
2018-04-02T15:41:44.066Z,26.80
2018-04-02T15:45:47.470Z,25.27
2018-04-02T15:49:50.889Z,23.20
2018-04-02T15:53:53.528Z,24.50
2018-04-02T15:57:56.174Z,20.43
2018-04-02T16:01:58.813Z,24.93
2018-04-02T16:06:01.446Z,20.10
2018-04-02T16:10:04.869Z,24.03
2018-04-02T16:14:07.513Z,20.40
2018-04-02T16:18:10.155Z,22.40
2018-04-02T16:22:12.794Z,21.40
2018-04-02T16:26:15.493Z,27.33
2018-04-02T16:30:18.865Z,23.03
2018-04-02T16:34:21.514Z,25.57
2018-04-02T16:38:24.155Z,20.87
2018-04-02T16:42:26.798Z,26.27
2018-04-02T16:46:29.446Z,20.07
2018-04-02T16:50:32.883Z,20.47
2018-04-02T16:54:35.520Z,22.00
2018-04-02T16:58:38.172Z,23.03
2018-04-02T17:02:40.818Z,20.63
2018-04-02T17:06:44.264Z,18.30
2018-04-02T17:10:46.874Z,16.93
2018-04-02T17:14:49.513Z,19.80
2018-04-02T17:18:52.916Z,17.03
2018-04-02T17:22:55.645Z,17.00
2018-04-02T17:26:58.309Z,18.40
2018-04-02T17:31:00.949Z,17.20
2018-04-02T17:35:03.598Z,22.90
2018-04-02T17:39:06.249Z,22.83
2018-04-02T17:43:08.918Z,17.90
2018-04-02T17:47:11.538Z,14.13
2018-04-02T17:51:14.946Z,14.33
2018-04-02T17:55:18.358Z,15.10
2018-04-02T17:59:21.010Z,17.90
2018-04-02T18:03:23.648Z,16.00
2018-04-02T18:07:26.255Z,14.17
2018-04-02T18:11:28.956Z,16.27
2018-04-02T18:15:31.626Z,13.43
2018-04-02T18:19:34.319Z,12.77
2018-04-02T18:23:36.939Z,13.27
2018-04-02T18:27:39.540Z,16.20
2018-04-02T18:31:42.265Z,16.07
2018-04-02T18:35:44.959Z,13.53
2018-04-02T18:39:47.603Z,14.47
2018-04-02T18:43:50.211Z,16.40
2018-04-02T18:47:53.625Z,47.37
2018-04-02T18:51:57.031Z,12.10
2018-04-02T18:55:59.710Z,13.63
2018-04-02T19:00:03.116Z,12.53
2018-04-02T19:04:06.489Z,16.93
2018-04-02T19:08:09.194Z,13.83
2018-04-02T19:12:11.840Z,14.70
2018-04-02T19:16:14.547Z,12.90
2018-04-02T19:20:17.213Z,17.97
2018-04-02T19:24:19.825Z,13.97
2018-04-02T19:28:22.463Z,17.80
2018-04-02T19:32:25.166Z,77.17
2018-04-02T19:36:27.803Z,19.20
2018-04-02T19:40:30.441Z,16.47
2018-04-02T19:44:33.053Z,16.57
2018-04-02T19:48:35.754Z,11.43
2018-04-02T19:52:38.450Z,11.37
2018-04-02T19:56:41.081Z,7.93
2018-04-02T20:00:44.496Z,9.47
2018-04-02T20:04:47.146Z,11.43
2018-04-02T20:08:49.873Z,7.57
2018-04-02T20:12:52.508Z,8.50
2018-04-02T20:16:55.162Z,8.63
2018-04-02T20:20:57.772Z,9.50
2018-04-02T20:25:00.400Z,9.30
2018-04-02T20:29:03.039Z,7.60
2018-04-02T20:33:05.679Z,8.97
2018-04-02T20:37:09.077Z,6.57
2018-04-02T20:41:11.694Z,9.77
2018-04-02T20:45:14.334Z,7.23
2018-04-02T20:49:16.980Z,6.97
2018-04-02T20:53:19.669Z,6.70
2018-04-02T20:57:22.302Z,5.30
2018-04-02T21:01:24.914Z,7.13
2018-04-02T21:05:28.318Z,5.47
2018-04-02T21:09:31.779Z,6.87
2018-04-02T21:13:34.426Z,6.37
2018-04-02T21:17:37.848Z,6.27
2018-04-02T21:21:40.457Z,5.17
2018-04-02T21:25:43.092Z,6.73
2018-04-02T21:29:45.734Z,6.30
2018-04-02T21:33:48.378Z,6.30
2018-04-02T21:37:51.763Z,7.83
2018-04-02T21:41:54.450Z,7.03
2018-04-02T21:45:57.093Z,10.17
2018-04-02T21:49:59.739Z,9.03
2018-04-02T21:54:02.375Z,5.90
2018-04-02T21:58:04.990Z,6.97
2018-04-02T22:02:07.626Z,10.73
2018-04-02T22:06:22.118Z,4.83
2018-04-02T22:10:24.753Z,6.20
2018-04-02T22:14:27.404Z,7.17
2018-04-02T22:18:30.014Z,4.70
2018-04-02T22:22:32.643Z,8.30
2018-04-02T22:26:36.054Z,5.33
2018-04-02T22:30:38.689Z,6.73
2018-04-02T22:34:41.321Z,5.73
2018-04-02T22:38:44.695Z,5.50
2018-04-02T22:42:47.389Z,6.13
2018-04-02T22:46:50.074Z,5.67
2018-04-02T22:50:52.718Z,7.13
2018-04-02T22:54:55.310Z,7.67
2018-04-02T22:58:57.949Z,5.13
2018-04-02T23:03:00.594Z,6.07
2018-04-02T23:07:03.337Z,6.20
2018-04-02T23:11:06.003Z,6.73
2018-04-02T23:15:08.605Z,6.63
2018-04-02T23:19:11.238Z,6.83
2018-04-02T23:23:13.937Z,5.27
2018-04-02T23:27:16.575Z,10.10
2018-04-02T23:31:19.982Z,7.33
2018-04-02T23:35:23.417Z,4.97
2018-04-02T23:39:26.059Z,6.80
2018-04-02T23:43:28.709Z,5.60
2018-04-02T23:47:31.352Z,8.80
2018-04-02T23:51:34.765Z,6.43
2018-04-02T23:55:38.138Z,6.00
2018-04-02T23:59:40.785Z,5.00
